»·PEaware :: N9622C KSNA-KOXR

N9622C :: KSNA-KOXR

FLIGHT INFORMATION

Flight Status: Arrived
Operator: Privately registered:
United States
More flights under this callsign
Pilot: Michael D. (17574)
Aircraft: CESSNA 172 SKYHAWK
(C172)
More flights by this aircraft type
Origin: KSNA John Wayne-Orange Co
United States
Destination: KOXR Oxnard
United States
More flights between these airports :: More routes between these airports
Route: SLI V23 POPPR SMO125R SMO VNY
File this flight plan on PilotEdge
Remarks: TEC route CSTN24 - I-4
Altitude:
(Current/Filed)
4,000ft
Speed:
(Current/Filed)
115kts
Departed: 12-Jan-18 10:00 PM
Arrived: 12-Jan-18 10:43 PM
Distance/Time
Traveled:
66nm/0:43
Distance/Time
To Go:
Arrived

Flight Plot

Page will automatically refresh every two minutes.


Map Options




Map Legend


Flown Route
Filed Route
Departure Airport
Arrival Airport
Navaid (VOR, NDB)
Fix

Horizontal Profiles

Position Reports

Time Latitude Longitude Heading Altitude Ground
Speed
12-Jan-18 21:53 33.675962 -117.871135 223 60ft 0kts
12-Jan-18 21:54 33.675962 -117.871135 223 60ft 0kts
12-Jan-18 21:55 33.675962 -117.871135 223 60ft 0kts
12-Jan-18 21:56 33.675962 -117.871135 223 60ft 0kts
12-Jan-18 21:57 33.675962 -117.871135 223 60ft 0kts
12-Jan-18 21:58 33.675962 -117.871135 223 60ft 0kts
12-Jan-18 21:59 33.675962 -117.871135 223 60ft 0kts
12-Jan-18 22:00 33.675962 -117.871135 223 60ft 0kts
12-Jan-18 22:01 33.676391 -117.869894 27 60ft 19kts
12-Jan-18 22:02 33.681194 -117.866256 118 60ft 0kts
12-Jan-18 22:03 33.681194 -117.866256 118 60ft 0kts
12-Jan-18 22:04 33.681194 -117.866256 118 60ft 0kts
12-Jan-18 22:05 33.681194 -117.866256 118 60ft 0kts
12-Jan-18 22:06 33.676248 -117.868494 208 74ft 83kts
12-Jan-18 22:07 33.657188 -117.887054 230 944ft 85kts
12-Jan-18 22:08 33.642507 -117.909174 230 1933ft 86kts
12-Jan-18 22:09 33.627688 -117.931504 229 2875ft 85kts
12-Jan-18 22:10 33.636226 -117.952118 331 3760ft 84kts
12-Jan-18 22:11 33.661134 -117.968457 330 4010ft 122kts
12-Jan-18 22:12 33.690095 -117.988178 329 4008ft 116kts
12-Jan-18 22:13 33.718104 -118.008198 328 4010ft 124kts
12-Jan-18 22:14 33.748863 -118.030364 329 4009ft 130kts
12-Jan-18 22:15 33.779753 -118.053213 312 4006ft 131kts
12-Jan-18 22:16 33.792562 -118.093436 288 4007ft 128kts
12-Jan-18 22:17 33.803264 -118.134181 287 4008ft 127kts
12-Jan-18 22:18 33.813651 -118.174905 286 4010ft 127kts
12-Jan-18 22:19 33.823532 -118.213697 287 3997ft 128kts
12-Jan-18 22:20 33.833675 -118.253543 287 3995ft 127kts
12-Jan-18 22:21 33.847420 -118.292064 317 3996ft 127kts
12-Jan-18 22:22 33.873353 -118.320655 319 3999ft 127kts
12-Jan-18 22:23 33.900685 -118.347376 321 3999ft 127kts
12-Jan-18 22:24 33.927995 -118.374357 320 3999ft 127kts
12-Jan-18 22:25 33.955126 -118.401522 320 3999ft 126kts
12-Jan-18 22:26 33.982169 -118.428706 320 3999ft 126kts
12-Jan-18 22:27 34.009139 -118.455912 318 3999ft 126kts
12-Jan-18 22:28 34.039001 -118.472460 10 3998ft 126kts
12-Jan-18 22:29 34.073767 -118.470234 357 3990ft 126kts
12-Jan-18 22:30 34.102927 -118.473044 353 3990ft 125kts
12-Jan-18 22:31 34.124741 -118.497673 281 3991ft 126kts
12-Jan-18 22:32 34.130768 -118.539667 281 3991ft 126kts
12-Jan-18 22:33 34.136614 -118.581566 281 3990ft 127kts
12-Jan-18 22:34 34.142188 -118.623874 281 3989ft 128kts
12-Jan-18 22:35 34.147243 -118.664384 281 3987ft 129kts
12-Jan-18 22:36 34.152459 -118.707507 281 3985ft 130kts
12-Jan-18 22:37 34.157631 -118.751098 281 3984ft 132kts
12-Jan-18 22:38 34.162905 -118.795193 281 3982ft 134kts
12-Jan-18 22:39 34.168376 -118.839913 281 3981ft 135kts
12-Jan-18 22:40 34.173875 -118.884842 281 3981ft 135kts
12-Jan-18 22:41 34.179401 -118.929856 281 3982ft 135kts
12-Jan-18 22:42 34.184418 -118.971298 281 3348ft 124kts
12-Jan-18 22:43 34.189230 -119.010616 281 3182ft 118kts
12-Jan-18 22:44 34.196534 -119.049051 301 3181ft 116kts
12-Jan-18 22:45 34.203884 -119.086525 269 3184ft 120kts
12-Jan-18 22:46 34.200556 -119.129342 269 2124ft 130kts
12-Jan-18 22:47 34.200560 -119.168979 270 875ft 102kts
12-Jan-18 22:48 34.200741 -119.199303 271 56ft 74kts
12-Jan-18 22:49 34.200060 -119.207009 139 41ft 0kts
12-Jan-18 22:50 34.200060 -119.207009 139 41ft 0kts
12-Jan-18 22:51 34.199085 -119.202259 126 41ft 19kts
12-Jan-18 22:52 34.198856 -119.201370 127 41ft 0kts
12-Jan-18 23:04 32.734272 -117.185249 195 17ft 0kts

Navigation Log

Ident Type
1. KSNA Airport
2. SLI Navaid
3. POPPR Fix
4. SMO Navaid
5. VNY Navaid
6. KOXR Airport